createdAt,value
2019-06-07T00:00:01.157Z,47.6
2019-06-07T00:05:02.501Z,46.5
2019-06-07T00:10:01.166Z,47.6
2019-06-07T00:15:02.176Z,47.6
2019-06-07T00:20:01.169Z,47.1
2019-06-07T00:25:02.392Z,48.7
2019-06-07T00:30:29.455Z,47.6
2019-06-07T00:35:01.692Z,47.1
2019-06-07T00:40:13.817Z,47.6
2019-06-07T00:45:02.198Z,47.6
2019-06-07T00:50:01.182Z,48.7
2019-06-07T00:55:02.417Z,46.5
2019-06-07T01:00:01.303Z,47.6
2019-06-07T01:05:02.411Z,47.1
2019-06-07T01:10:01.323Z,48.7
2019-06-07T01:15:00.570Z,47.6
2019-06-07T01:20:01.633Z,48.7
2019-06-07T01:25:00.651Z,47.1
2019-06-07T01:30:01.270Z,48.2
2019-06-07T01:35:02.516Z,46.5
2019-06-07T01:40:01.510Z,47.6
2019-06-07T01:45:00.679Z,48.7
2019-06-07T01:50:02.017Z,47.6
2019-06-07T01:55:00.999Z,47.6
2019-06-07T02:00:02.323Z,48.2
2019-06-07T02:05:01.386Z,46.5
2019-06-07T02:10:00.637Z,47.1
2019-06-07T02:15:01.518Z,47.1
2019-06-07T02:20:00.986Z,47.6
2019-06-07T02:25:34.924Z,47.6
2019-06-07T02:30:35.021Z,47.6
2019-06-07T02:35:00.622Z,47.6
2019-06-07T02:40:01.644Z,47.6
2019-06-07T02:45:00.964Z,47.1
2019-06-07T02:50:02.303Z,47.6
2019-06-07T02:55:01.347Z,47.1
2019-06-07T03:00:16.907Z,45.5
2019-06-07T03:05:00.652Z,46.5
2019-06-07T03:10:01.777Z,46
2019-06-07T03:15:00.874Z,45.5
2019-06-07T03:20:02.036Z,47.1
2019-06-07T03:25:00.891Z,47.1
2019-06-07T03:30:34.900Z,47.1
2019-06-07T03:35:01.128Z,47.1
2019-06-07T03:40:02.503Z,47.6
2019-06-07T03:45:01.291Z,46.5
2019-06-07T03:50:00.624Z,46
2019-06-07T03:55:01.495Z,47.1
2019-06-07T04:00:00.817Z,46.5
2019-06-07T04:05:01.961Z,45.5
2019-06-07T04:10:00.981Z,47.1
2019-06-07T04:15:02.152Z,46.5
2019-06-07T04:20:00.974Z,47.1
2019-06-07T04:25:02.232Z,46.5
2019-06-07T04:30:07.018Z,47.1
2019-06-07T04:35:02.441Z,45.5
2019-06-07T04:40:01.553Z,47.1
2019-06-07T04:45:00.761Z,47.1
2019-06-07T04:50:01.835Z,47.1
2019-06-07T04:55:00.912Z,46.5
2019-06-07T05:00:12.600Z,46.5
2019-06-07T05:05:01.111Z,47.6
2019-06-07T05:10:02.215Z,47.6
2019-06-07T05:15:01.167Z,47.6
2019-06-07T05:20:00.655Z,47.6
2019-06-07T05:25:01.597Z,47.1
2019-06-07T05:30:13.488Z,46.5
2019-06-07T05:35:01.922Z,47.6
2019-06-07T05:40:00.835Z,47.1
2019-06-07T05:45:02.122Z,47.1
2019-06-07T05:50:01.131Z,46
2019-06-07T05:55:02.173Z,47.1
2019-06-07T06:00:01.205Z,47.6
2019-06-07T06:05:02.810Z,45.5
2019-06-07T06:10:01.446Z,48.2
2019-06-07T06:15:00.568Z,47.1
2019-06-07T06:20:01.655Z,47.6
2019-06-07T06:25:30.463Z,47.6
2019-06-07T06:30:02.272Z,47.6
2019-06-07T06:35:01.105Z,47.6
2019-06-07T06:40:02.495Z,46.5
2019-06-07T06:45:01.295Z,48.2
2019-06-07T06:50:02.555Z,46.5
2019-06-07T06:55:01.402Z,48.2
2019-06-07T07:00:02.330Z,46.5
2019-06-07T07:05:01.341Z,47.1
2019-06-07T07:10:00.611Z,48.7
2019-06-07T07:15:01.761Z,48.7
2019-06-07T07:20:00.977Z,48.2
2019-06-07T07:25:02.233Z,48.7
2019-06-07T07:30:34.607Z,48.2
2019-06-07T07:35:01.991Z,53
2019-06-07T07:40:21.425Z,48.7
2019-06-07T07:45:00.710Z,48.7
2019-06-07T07:50:01.414Z,48.7
2019-06-07T07:55:00.498Z,49.2
2019-06-07T08:00:25.512Z,49.8
2019-06-07T08:05:23.159Z,49.8
2019-06-07T08:10:04.007Z,50.3
2019-06-07T08:15:03.487Z,50.8
2019-06-07T08:20:02.784Z,50.3
2019-06-07T08:25:04.079Z,49.8
2019-06-07T08:30:25.630Z,50.8
2019-06-07T08:35:05.769Z,49.8
2019-06-07T08:40:01.785Z,49.8
2019-06-07T08:45:04.987Z,50.3
2019-06-07T08:50:06.253Z,50.8
2019-06-07T08:55:04.884Z,49.8
2019-06-07T09:00:07.017Z,48.7
2019-06-07T09:05:06.702Z,50.3
2019-06-07T09:10:09.192Z,50.8
2019-06-07T09:15:14.447Z,49.2
2019-06-07T09:20:07.598Z,49.8
2019-06-07T09:25:07.477Z,51.4
2019-06-07T09:30:07.596Z,51.4
2019-06-07T09:35:07.921Z,49.8
2019-06-07T09:40:14.858Z,51.4
2019-06-07T09:45:03.762Z,51.4
2019-06-07T09:50:05.860Z,53
2019-06-07T09:55:06.946Z,51.9
2019-06-07T10:00:02.522Z,51.9
2019-06-07T10:05:05.095Z,51.9
2019-06-07T10:15:02.906Z,53.5
2019-06-07T10:20:02.478Z,53
2019-06-07T10:25:02.333Z,53
2019-06-07T10:30:02.299Z,54.1
2019-06-07T10:35:03.183Z,50.8
2019-06-07T10:40:02.558Z,54.1
2019-06-07T10:45:02.310Z,54.1
2019-06-07T10:50:02.060Z,53
2019-06-07T10:55:02.424Z,54.1
2019-06-07T11:00:03.456Z,54.1
2019-06-07T11:05:01.084Z,54.6
2019-06-07T11:10:06.829Z,54.1
2019-06-07T11:15:01.587Z,53
2019-06-07T11:20:00.987Z,54.6
2019-06-07T11:25:01.836Z,55.1
2019-06-07T11:30:00.808Z,54.6
2019-06-07T11:35:01.804Z,55.1
2019-06-07T11:40:01.103Z,55.1
2019-06-07T11:45:02.631Z,55.1
2019-06-07T11:50:01.403Z,55.7
2019-06-07T11:55:00.661Z,54.6
2019-06-07T12:00:01.525Z,55.1
2019-06-07T12:05:00.815Z,55.1
2019-06-07T12:10:01.628Z,54.1
2019-06-07T12:15:00.845Z,54.1
2019-06-07T12:20:01.250Z,55.7
2019-06-07T12:25:00.633Z,55.1
2019-06-07T12:30:09.113Z,55.7
2019-06-07T12:35:00.581Z,55.7
2019-06-07T12:40:01.135Z,55.7
2019-06-07T12:45:02.351Z,56.2
2019-06-07T12:50:01.392Z,56.2
2019-06-07T12:55:00.738Z,55.7
2019-06-07T13:00:01.723Z,55.7
2019-06-07T13:05:04.448Z,56.2
2019-06-07T13:10:01.832Z,56.2
2019-06-07T13:15:01.131Z,57.3
2019-06-07T13:20:00.604Z,56.8
2019-06-07T13:25:01.617Z,57.8
2019-06-07T13:30:09.078Z,56.2
2019-06-07T13:35:02.005Z,57.3
2019-06-07T13:40:01.079Z,57.8
2019-06-07T13:45:02.476Z,57.3
2019-06-07T13:50:00.912Z,57.3
2019-06-07T13:55:02.823Z,56.8
2019-06-07T14:00:09.836Z,58.4
2019-06-07T14:05:01.722Z,58.9
2019-06-07T14:10:00.899Z,58.4
2019-06-07T14:15:01.922Z,59.5
2019-06-07T14:20:01.087Z,59.5
2019-06-07T14:25:02.428Z,57.8
2019-06-07T14:30:01.246Z,59.5
2019-06-07T14:35:00.590Z,60
2019-06-07T14:40:01.976Z,60
2019-06-07T14:45:05.847Z,60
2019-06-07T14:50:02.299Z,61.1
2019-06-07T14:55:01.121Z,62.1
2019-06-07T15:00:10.363Z,64.8
2019-06-07T15:05:01.462Z,65.4
2019-06-07T15:10:00.751Z,65.9
2019-06-07T15:15:01.523Z,66.4
2019-06-07T15:20:00.814Z,65.9
2019-06-07T15:25:02.200Z,67
2019-06-07T15:30:09.426Z,67
2019-06-07T15:35:02.551Z,64.3
2019-06-07T15:40:01.543Z,65.4
2019-06-07T15:45:00.805Z,64.3
2019-06-07T15:50:01.843Z,64.3
2019-06-07T15:55:00.803Z,63.8
2019-06-07T16:00:02.223Z,64.3
2019-06-07T16:05:01.094Z,65.9
2019-06-07T16:10:00.658Z,66.4
2019-06-07T16:15:01.726Z,67
2019-06-07T16:20:00.784Z,67
2019-06-07T16:25:01.999Z,66.4
2019-06-07T16:30:08.732Z,66.4
2019-06-07T16:35:02.216Z,68.1
2019-06-07T16:40:01.470Z,65.9
2019-06-07T16:45:00.841Z,64.8
2019-06-07T16:50:01.988Z,64.3
2019-06-07T16:55:00.938Z,62.7
2019-06-07T17:00:02.249Z,61.6
2019-06-07T17:05:01.442Z,61.1
2019-06-07T17:10:00.716Z,60.5
2019-06-07T17:15:01.845Z,60.5
2019-06-07T17:20:01.042Z,60
2019-06-07T17:25:00.600Z,60
2019-06-07T17:30:01.472Z,60
2019-06-07T17:35:00.691Z,59.5
2019-06-07T17:40:01.674Z,60.5
2019-06-07T17:45:00.827Z,59.5
2019-06-07T17:50:02.535Z,59.5
2019-06-07T17:55:01.251Z,59.5
2019-06-07T18:00:27.007Z,58.9
2019-06-07T18:05:01.715Z,58.9
2019-06-07T18:10:00.998Z,58.9
2019-06-07T18:15:02.077Z,58.4
2019-06-07T18:20:00.986Z,58.4
2019-06-07T18:25:02.003Z,58.4
2019-06-07T18:30:10.755Z,58.4
2019-06-07T18:35:01.785Z,57.3
2019-06-07T18:40:01.136Z,57.8
2019-06-07T18:45:02.548Z,56.2
2019-06-07T18:50:01.426Z,57.8
2019-06-07T18:55:00.500Z,56.2
2019-06-07T19:00:01.402Z,57.3
2019-06-07T19:05:00.746Z,58.4
2019-06-07T19:10:01.799Z,57.8
2019-06-07T19:15:00.805Z,57.3
2019-06-07T19:20:02.294Z,57.3
2019-06-07T19:25:01.233Z,55.7
2019-06-07T19:30:01.059Z,57.3
2019-06-07T19:35:01.762Z,56.2
2019-06-07T19:40:02.572Z,57.3
2019-06-07T19:45:26.891Z,56.8
2019-06-07T19:50:01.210Z,56.8
2019-06-07T19:55:05.753Z,56.2
2019-06-07T20:00:02.618Z,55.1
2019-06-07T20:05:03.671Z,55.7
2019-06-07T20:10:02.900Z,55.7
2019-06-07T20:15:23.133Z,55.1
2019-06-07T20:20:02.778Z,55.7
2019-06-07T20:25:01.167Z,55.1
2019-06-07T20:30:00.555Z,55.7
2019-06-07T20:35:01.862Z,55.1
2019-06-07T20:40:12.584Z,55.1
2019-06-07T20:45:02.159Z,55.7
2019-06-07T20:50:02.371Z,55.1
2019-06-07T20:55:03.057Z,55.1
2019-06-07T21:00:05.774Z,55.1
2019-06-07T21:05:03.293Z,55.1
2019-06-07T21:10:01.771Z,55.1
2019-06-07T21:15:05.086Z,55.7
2019-06-07T21:20:02.927Z,54.6
2019-06-07T21:25:00.875Z,55.1
2019-06-07T21:30:03.260Z,54.6
2019-06-07T21:35:01.827Z,54.1
2019-06-07T21:40:02.270Z,54.6
2019-06-07T21:45:03.427Z,54.1
2019-06-07T21:50:02.664Z,53
2019-06-07T21:55:02.695Z,54.1
2019-06-07T22:00:00.710Z,54.1
2019-06-07T22:05:01.386Z,55.1
2019-06-07T22:10:00.668Z,54.1
2019-06-07T22:15:01.899Z,54.6
2019-06-07T22:20:00.766Z,53
2019-06-07T22:25:01.965Z,54.1
2019-06-07T22:30:00.873Z,53.5
2019-06-07T22:35:02.686Z,53.5
2019-06-07T22:40:01.275Z,54.1
2019-06-07T22:45:00.634Z,53.5
2019-06-07T22:50:01.726Z,52.5
2019-06-07T22:55:01.008Z,52.5
2019-06-07T23:00:08.727Z,53.5
2019-06-07T23:05:04.664Z,53
2019-06-07T23:10:02.319Z,53
2019-06-07T23:15:01.166Z,53
2019-06-07T23:20:02.445Z,51.9
2019-06-07T23:25:00.920Z,51.9
2019-06-07T23:30:08.064Z,53.5
2019-06-07T23:35:00.598Z,53
2019-06-07T23:40:01.844Z,53
2019-06-07T23:45:01.091Z,53
2019-06-07T23:50:02.481Z,51.4
2019-06-07T23:55:00.787Z,53
